Time;durP1;ratioP1;P1;durP2;ratioP2;P2;SDS_P1;SDS_P2;PMS_P1;PMS_P2;Temp;Humidity;BMP_temperature;BMP_pressure;BME280_temperature;BME280_humidity;BME280_pressure;Samples;Min_cycle;Max_cycle;Signal;HPM_P1;HPM_P2
2023/04/11 00:00:33;;;;;;;6.03;5.22;;;8.10;92.60;;;;;;5046310;28;20184;-78
2023/04/11 00:03:02;;;;;;;5.30;4.80;;;8.10;92.70;;;;;;5043070;28;20179;-76
2023/04/11 00:05:31;;;;;;;5.13;4.63;;;8.10;92.60;;;;;;5048196;28;20730;-75
2023/04/11 00:07:57;;;;;;;5.10;4.60;;;8.10;92.70;;;;;;5042660;28;20212;-75
2023/04/11 00:10:22;;;;;;;5.63;5.13;;;8.10;92.90;;;;;;5046952;28;20242;-76
2023/04/11 00:12:48;;;;;;;5.93;5.43;;;8.10;93.00;;;;;;5046409;28;20542;-75
2023/04/11 00:15:15;;;;;;;5.78;5.18;;;8.10;93.30;;;;;;5053030;28;20228;-76
2023/04/11 00:17:44;;;;;;;6.22;5.65;;;8.00;93.70;;;;;;5046210;28;20629;-77
2023/04/11 00:20:11;;;;;;;6.10;5.60;;;7.90;93.70;;;;;;5030540;28;20666;-76
2023/04/11 00:22:37;;;;;;;6.45;5.80;;;7.80;94.00;;;;;;5037244;28;20217;-76
2023/04/11 00:25:04;;;;;;;5.82;5.32;;;7.80;94.40;;;;;;5034822;28;20211;-77
2023/04/11 00:27:30;;;;;;;6.03;5.43;;;7.80;94.70;;;;;;5034524;28;20271;-77
2023/04/11 00:29:56;;;;;;;5.78;5.28;;;7.80;94.70;;;;;;5053249;28;20271;-77
2023/04/11 00:32:25;;;;;;;6.43;5.22;;;7.80;95.00;;;;;;5054782;28;20214;-77
2023/04/11 00:34:51;;;;;;;6.15;5.55;;;7.80;95.30;;;;;;5045265;28;20254;-77
2023/04/11 00:37:20;;;;;;;6.90;6.20;;;7.80;95.40;;;;;;5054163;28;20176;-78
2023/04/11 00:39:49;;;;;;;6.50;5.90;;;7.70;95.70;;;;;;5052686;28;20180;-78
2023/04/11 00:42:15;;;;;;;6.30;5.80;;;7.70;96.10;;;;;;5042884;28;20176;-77
2023/04/11 00:44:41;;;;;;;6.95;6.22;;;7.70;96.40;;;;;;5052902;28;20291;-80
2023/04/11 00:47:07;;;;;;;5.80;5.30;;;7.70;96.40;;;;;;5059944;28;20208;-79
2023/04/11 00:49:33;;;;;;;6.28;5.78;;;7.70;96.70;;;;;;5061004;28;20168;-78
2023/04/11 00:51:59;;;;;;;7.05;6.32;;;7.70;97.00;;;;;;5050053;28;20204;-79
2023/04/11 00:54:28;;;;;;;7.72;5.68;;;7.70;97.10;;;;;;5055493;28;20199;-79
2023/04/11 00:56:59;;;;;;;7.03;5.80;;;7.70;97.40;;;;;;5056612;28;20176;-79
2023/04/11 00:59:27;;;;;;;7.43;6.72;;;7.70;97.60;;;;;;5048861;28;20188;-77
2023/04/11 01:01:53;;;;;;;6.60;6.10;;;7.80;97.80;;;;;;5032578;28;20242;-78
2023/04/11 01:04:20;;;;;;;6.63;6.07;;;7.80;98.20;;;;;;5050705;28;20238;-79
2023/04/11 01:06:51;;;;;;;6.13;5.63;;;7.80;98.00;;;;;;5048239;28;20175;-78
2023/04/11 01:09:19;;;;;;;6.65;5.95;;;7.90;98.30;;;;;;5044471;28;20207;-78
2023/04/11 01:11:46;;;;;;;7.18;6.50;;;7.90;98.30;;;;;;5050981;28;20246;-79
2023/04/11 01:14:12;;;;;;;6.82;6.13;;;7.80;98.60;;;;;;5043860;28;20576;-77
2023/04/11 01:16:38;;;;;;;6.95;6.28;;;7.90;98.70;;;;;;5043541;28;20651;-79
2023/04/11 01:19:04;;;;;;;6.72;6.05;;;7.80;98.90;;;;;;5053683;28;20239;-79
2023/04/11 01:21:30;;;;;;;6.53;5.88;;;7.90;99.20;;;;;;5040145;28;20191;-78
2023/04/11 01:23:57;;;;;;;6.55;5.95;;;7.90;99.40;;;;;;5042472;28;20288;-77
2023/04/11 01:26:22;;;;;;;6.45;5.85;;;7.80;99.50;;;;;;5034215;28;20643;-77
2023/04/11 01:28:48;;;;;;;7.50;6.57;;;7.90;99.90;;;;;;5052606;28;20183;-77
2023/04/11 01:31:14;;;;;;;7.28;6.57;;;7.90;99.90;;;;;;5048254;28;20261;-77
2023/04/11 01:33:40;;;;;;;6.90;6.20;;;7.90;99.90;;;;;;5038595;28;20199;-77
2023/04/11 01:36:06;;;;;;;6.93;5.70;;;7.90;99.90;;;;;;5045041;28;20188;-77
2023/04/11 01:38:32;;;;;;;6.60;6.00;;;7.90;99.90;;;;;;5044075;28;20168;-77
2023/04/11 01:40:58;;;;;;;7.97;6.30;;;7.90;99.90;;;;;;5043694;28;20685;-76
2023/04/11 01:43:24;;;;;;;7.00;6.30;;;7.90;99.90;;;;;;5040462;28;20242;-76
2023/04/11 01:45:50;;;;;;;6.35;5.75;;;8.00;99.90;;;;;;5041365;28;20566;-76
2023/04/11 01:48:15;;;;;;;6.90;6.30;;;7.90;99.90;;;;;;5043473;28;20206;-76
2023/04/11 01:50:41;;;;;;;7.43;6.35;;;7.80;99.90;;;;;;5047306;28;20200;-76
2023/04/11 01:53:06;;;;;;;6.93;6.22;;;7.80;99.90;;;;;;5051326;28;20206;-76
2023/04/11 01:55:32;;;;;;;11.25;6.97;;;7.80;99.90;;;;;;5046261;28;20185;-76
2023/04/11 01:57:58;;;;;;;7.07;6.45;;;7.70;99.90;;;;;;5034054;28;20172;-77
2023/04/11 02:00:23;;;;;;;7.35;6.57;;;7.70;99.90;;;;;;5047360;28;20198;-76
2023/04/11 02:02:49;;;;;;;7.20;6.50;;;7.50;99.90;;;;;;5032822;28;20184;-76
2023/04/11 02:05:15;;;;;;;7.20;6.50;;;7.40;99.90;;;;;;5047944;28;20200;-75
2023/04/11 02:07:41;;;;;;;7.93;7.22;;;7.30;99.90;;;;;;5051560;28;20183;-75
2023/04/11 02:10:07;;;;;;;8.23;7.30;;;7.20;99.90;;;;;;5046158;28;20654;-76
2023/04/11 02:12:32;;;;;;;6.53;5.93;;;7.20;99.90;;;;;;5043720;28;20662;-76
2023/04/11 02:14:58;;;;;;;8.20;7.00;;;7.20;99.90;;;;;;5042845;28;20207;-76
2023/04/11 02:17:25;;;;;;;7.68;6.95;;;7.20;99.90;;;;;;5051644;28;20179;-75
2023/04/11 02:19:51;;;;;;;7.53;6.93;;;7.10;99.90;;;;;;5044668;28;20226;-75
2023/04/11 02:22:16;;;;;;;7.90;7.10;;;7.10;99.90;;;;;;5035110;28;20172;-75
2023/04/11 02:24:42;;;;;;;7.43;6.72;;;7.20;99.90;;;;;;5047304;28;20200;-75
2023/04/11 02:27:09;;;;;;;8.02;7.22;;;7.10;99.90;;;;;;5051922;28;20654;-76
2023/04/11 02:29:35;;;;;;;7.35;6.72;;;7.20;99.90;;;;;;5047949;28;20659;-76
2023/04/11 02:32:01;;;;;;;7.38;6.55;;;7.20;99.90;;;;;;5050753;28;20243;-76
2023/04/11 02:34:26;;;;;;;8.63;7.72;;;7.30;99.90;;;;;;5052397;28;20192;-76
2023/04/11 02:36:52;;;;;;;8.38;7.28;;;7.20;99.90;;;;;;5058422;28;20546;-78
2023/04/11 02:39:22;;;;;;;7.72;6.93;;;7.30;99.90;;;;;;5047124;28;20586;-77
2023/04/11 02:41:48;;;;;;;8.57;7.00;;;7.30;99.90;;;;;;5031321;28;20204;-76
2023/04/11 02:44:14;;;;;;;7.32;6.72;;;7.30;99.90;;;;;;5033583;28;20669;-77
2023/04/11 02:46:39;;;;;;;6.68;6.07;;;7.30;99.90;;;;;;5050661;28;20551;-77
2023/04/11 02:49:05;;;;;;;8.00;7.07;;;7.40;99.90;;;;;;5046796;28;20187;-76
2023/04/11 02:51:32;;;;;;;7.60;6.90;;;7.40;99.90;;;;;;5047225;28;20571;-77
2023/04/11 02:53:57;;;;;;;7.38;6.68;;;7.50;99.90;;;;;;5034222;28;20253;-78
2023/04/11 02:56:23;;;;;;;7.10;6.35;;;7.50;99.90;;;;;;5047561;28;20479;-77
2023/04/11 02:58:51;;;;;;;8.35;7.53;;;7.50;99.90;;;;;;5052408;28;20188;-78
2023/04/11 03:01:18;;;;;;;8.13;7.25;;;7.40;99.90;;;;;;5054165;28;20172;-77
2023/04/11 03:03:43;;;;;;;8.52;7.72;;;7.30;99.90;;;;;;5043401;28;20374;-77
2023/04/11 03:06:09;;;;;;;8.45;7.57;;;7.20;99.90;;;;;;5051600;28;20172;-76
2023/04/11 03:08:36;;;;;;;8.57;7.60;;;7.10;99.90;;;;;;5048083;28;20215;-77
2023/04/11 03:11:05;;;;;;;8.27;7.47;;;7.00;99.90;;;;;;5050382;28;20200;-77
2023/04/11 03:13:32;;;;;;;9.32;7.60;;;6.90;99.90;;;;;;5038448;28;20192;-75
2023/04/11 03:15:58;;;;;;;9.48;8.52;;;6.80;99.90;;;;;;5045432;28;20183;-76
2023/04/11 03:18:23;;;;;;;8.77;7.88;;;6.80;99.90;;;;;;5050349;28;20183;-76
2023/04/11 03:20:50;;;;;;;9.10;8.20;;;6.70;99.90;;;;;;5047704;28;20224;-76
2023/04/11 03:23:16;;;;;;;9.70;8.70;;;6.70;99.90;;;;;;5049988;28;20195;-76
2023/04/11 03:25:43;;;;;;;8.90;8.00;;;6.60;99.90;;;;;;5048858;28;20214;-76
2023/04/11 03:28:09;;;;;;;9.82;8.30;;;6.60;99.90;;;;;;5052855;28;20188;-76
2023/04/11 03:30:39;;;;;;;9.98;8.98;;;6.50;99.90;;;;;;5046237;28;20702;-77
2023/04/11 03:33:05;;;;;;;10.93;9.20;;;6.50;99.90;;;;;;5049166;28;20694;-76
2023/04/11 03:35:31;;;;;;;11.23;9.18;;;6.40;99.90;;;;;;5051658;28;20222;-75
2023/04/11 03:37:56;;;;;;;9.90;8.50;;;6.40;99.90;;;;;;5057243;28;20526;-75
2023/04/11 03:40:22;;;;;;;11.48;10.27;;;6.40;99.90;;;;;;5057643;28;20175;-75
2023/04/11 03:42:48;;;;;;;10.57;9.27;;;6.40;99.90;;;;;;5053765;28;20711;-75
2023/04/11 03:45:13;;;;;;;10.18;9.18;;;6.30;99.90;;;;;;5036323;28;20757;-75
2023/04/11 03:47:39;;;;;;;10.40;9.07;;;6.30;99.90;;;;;;5046935;28;20181;-75
2023/04/11 03:50:09;;;;;;;10.45;9.40;;;6.30;99.90;;;;;;5046002;28;20240;-76
2023/04/11 03:52:34;;;;;;;10.38;9.15;;;6.30;99.90;;;;;;5055149;28;20611;-75
2023/04/11 03:55:01;;;;;;;10.68;9.57;;;6.30;99.90;;;;;;5046518;28;20198;-75
2023/04/11 03:57:27;;;;;;;13.15;9.88;;;6.30;99.90;;;;;;5030252;28;20176;-76
2023/04/11 03:59:54;;;;;;;11.40;10.20;;;6.30;99.90;;;;;;5042475;28;20172;-75
2023/04/11 04:02:20;;;;;;;11.95;10.18;;;6.30;99.90;;;;;;5052113;28;20881;-76
2023/04/11 04:04:47;;;;;;;14.65;11.07;;;6.30;99.90;;;;;;5045240;28;20443;-76
2023/04/11 04:07:13;;;;;;;11.57;10.38;;;6.20;99.90;;;;;;5043338;28;20179;-75
2023/04/11 04:09:41;;;;;;;11.38;10.20;;;6.20;99.90;;;;;;5049108;28;20549;-76
2023/04/11 04:12:07;;;;;;;13.55;11.00;;;6.20;99.90;;;;;;5047484;28;20286;-76
2023/04/11 04:14:33;;;;;;;11.88;10.40;;;6.20;99.90;;;;;;5048981;28;20282;-77
2023/04/11 04:16:58;;;;;;;12.80;10.90;;;6.10;99.90;;;;;;5052297;28;20179;-76
2023/04/11 04:19:24;;;;;;;12.15;10.85;;;6.10;99.90;;;;;;5036696;28;20184;-75
2023/04/11 04:21:49;;;;;;;13.77;11.50;;;6.10;99.90;;;;;;5055349;28;20276;-74
2023/04/11 04:24:15;;;;;;;14.05;12.02;;;6.10;99.90;;;;;;5045935;28;20199;-75
2023/04/11 04:26:40;;;;;;;14.20;10.95;;;6.20;99.90;;;;;;5051416;28;20199;-76
2023/04/11 04:29:08;;;;;;;12.13;10.70;;;6.20;99.90;;;;;;5038929;28;20202;-75
2023/04/11 04:31:35;;;;;;;13.02;11.05;;;6.30;99.90;;;;;;5055122;28;20286;-75
2023/04/11 04:34:09;;;;;;;13.18;11.45;;;6.30;99.90;;;;;;5051348;28;20310;-75
2023/04/11 04:36:55;;;;;;;15.07;11.85;;;6.30;99.90;;;;;;5028099;28;20175;-75
2023/04/11 04:39:20;;;;;;;13.57;11.25;;;6.40;99.90;;;;;;5049014;28;20472;-75
2023/04/11 04:41:47;;;;;;;12.70;11.13;;;6.30;99.90;;;;;;5043881;28;20196;-75
2023/04/11 04:44:16;;;;;;;13.40;11.75;;;6.40;99.90;;;;;;5049794;28;20207;-75
2023/04/11 04:46:42;;;;;;;13.70;11.35;;;6.40;99.90;;;;;;5046295;28;20176;-75
2023/04/11 04:49:08;;;;;;;14.52;12.07;;;6.40;99.90;;;;;;5047814;28;20193;-75
2023/04/11 04:51:35;;;;;;;14.48;12.25;;;6.40;99.90;;;;;;5048810;28;20211;-75
2023/04/11 04:54:01;;;;;;;14.45;11.90;;;6.40;99.90;;;;;;5049257;28;20194;-75
2023/04/11 04:56:30;;;;;;;13.18;11.40;;;6.40;99.90;;;;;;5048965;28;20177;-75
2023/04/11 04:58:56;;;;;;;14.68;11.60;;;6.40;99.90;;;;;;5044286;28;20196;-75
2023/04/11 05:01:25;;;;;;;16.25;10.55;;;6.40;99.90;;;;;;5051315;28;20259;-75
2023/04/11 05:04:00;;;;;;;15.73;12.88;;;6.50;99.90;;;;;;5057235;28;20195;-75
2023/04/11 05:06:33;;;;;;;13.20;11.38;;;6.70;99.90;;;;;;5047397;28;20253;-75
2023/04/11 05:09:00;;;;;;;13.55;12.02;;;6.60;99.90;;;;;;5047157;28;20187;-76
2023/04/11 05:11:27;;;;;;;12.80;11.35;;;6.70;99.90;;;;;;5047928;28;20662;-76
2023/04/11 05:13:53;;;;;;;13.52;11.80;;;6.80;99.90;;;;;;5050944;28;20670;-76
2023/04/11 05:16:20;;;;;;;13.95;11.43;;;6.70;99.90;;;;;;5044779;28;20176;-75
2023/04/11 05:18:46;;;;;;;14.57;11.73;;;6.70;99.90;;;;;;5047274;28;20948;-77
2023/04/11 05:21:12;;;;;;;14.02;11.45;;;6.70;99.90;;;;;;5043459;28;20253;-76
2023/04/11 05:23:38;;;;;;;14.75;13.18;;;6.60;99.90;;;;;;5052003;28;20200;-79
2023/04/11 05:26:05;;;;;;;13.82;12.18;;;6.70;99.90;;;;;;5034802;28;20183;-77
2023/04/11 05:28:31;;;;;;;14.48;12.30;;;6.80;99.90;;;;;;5040017;28;20552;-81
2023/04/11 05:30:56;;;;;;;14.63;12.13;;;6.80;99.90;;;;;;5048663;28;20203;-78
2023/04/11 05:33:23;;;;;;;14.45;12.27;;;6.70;99.90;;;;;;5052079;28;20231;-76
2023/04/11 05:35:49;;;;;;;13.55;11.82;;;6.70;99.90;;;;;;5035214;28;20270;-76
2023/04/11 05:38:15;;;;;;;15.00;11.88;;;6.70;99.90;;;;;;5047380;28;20215;-77
2023/04/11 05:40:41;;;;;;;14.82;12.82;;;6.60;99.90;;;;;;5050808;28;20220;-77
2023/04/11 05:43:07;;;;;;;13.60;11.90;;;6.60;99.90;;;;;;5061745;28;20184;-78
2023/04/11 05:45:33;;;;;;;16.10;12.90;;;6.70;99.90;;;;;;5055407;28;20180;-77
2023/04/11 05:47:58;;;;;;;14.60;11.98;;;6.60;99.90;;;;;;5039562;28;20284;-77
2023/04/11 05:50:25;;;;;;;15.40;12.80;;;6.60;99.90;;;;;;5051190;28;20200;-77
2023/04/11 05:52:50;;;;;;;15.43;13.60;;;6.70;99.90;;;;;;5046280;28;20296;-76
2023/04/11 05:55:16;;;;;;;13.27;11.85;;;6.80;99.90;;;;;;5037372;28;20685;-77
2023/04/11 05:57:42;;;;;;;14.80;11.90;;;7.00;99.90;;;;;;5052476;28;20175;-76
2023/04/11 06:00:12;;;;;;;14.65;12.82;;;7.00;99.90;;;;;;5049892;28;20183;-76
2023/04/11 06:02:38;;;;;;;13.30;11.82;;;7.30;99.90;;;;;;5052358;28;20176;-77
2023/04/11 06:05:04;;;;;;;12.60;11.30;;;7.30;99.90;;;;;;5057617;28;20279;-79
2023/04/11 06:07:31;;;;;;;12.93;11.23;;;7.50;99.90;;;;;;5043143;28;20262;-78
2023/04/11 06:09:57;;;;;;;13.00;11.60;;;7.70;99.90;;;;;;5060705;28;20630;-79
2023/04/11 06:12:22;;;;;;;13.10;11.15;;;7.80;99.90;;;;;;5040920;28;21984;-78
2023/04/11 06:14:48;;;;;;;11.77;10.40;;;7.80;99.90;;;;;;5058736;28;20236;-77
2023/04/11 06:17:14;;;;;;;12.80;11.45;;;7.60;99.90;;;;;;5056824;28;20187;-79
2023/04/11 06:19:40;;;;;;;14.57;11.95;;;7.60;99.90;;;;;;5050132;28;20172;-77
2023/04/11 06:22:05;;;;;;;14.75;12.52;;;7.60;99.90;;;;;;5040827;28;20206;-78
2023/04/11 06:24:39;;;;;;;13.68;12.20;;;7.70;99.90;;;;;;5052879;28;20204;-78
2023/04/11 06:27:08;;;;;;;13.73;11.60;;;7.80;99.90;;;;;;5053708;28;20185;-76
2023/04/11 06:29:34;;;;;;;14.00;11.27;;;8.00;99.90;;;;;;5054098;28;20561;-77
2023/04/11 06:32:00;;;;;;;13.13;11.80;;;7.90;99.90;;;;;;5059726;28;20218;-79
2023/04/11 06:34:26;;;;;;;12.40;11.20;;;7.90;99.90;;;;;;5055147;28;20200;-79
2023/04/11 06:36:52;;;;;;;14.32;11.60;;;8.00;99.90;;;;;;5049903;28;20191;-78
2023/04/11 06:39:17;;;;;;;15.25;12.63;;;8.10;99.90;;;;;;5048011;28;20179;-79
2023/04/11 06:41:45;;;;;;;13.55;11.93;;;8.30;99.90;;;;;;5051267;28;20190;-79
2023/04/11 06:44:10;;;;;;;13.35;11.98;;;8.20;99.90;;;;;;5055218;28;20585;-78
2023/04/11 06:46:36;;;;;;;12.38;11.07;;;8.30;99.90;;;;;;5054563;28;20180;-79
2023/04/11 06:49:02;;;;;;;14.90;12.60;;;8.40;99.90;;;;;;5044816;28;20188;-80
2023/04/11 06:51:28;;;;;;;13.15;11.93;;;8.50;99.90;;;;;;5031467;28;20188;-79
2023/04/11 06:53:54;;;;;;;14.10;12.63;;;8.50;99.90;;;;;;5060859;28;20199;-79
2023/04/11 06:56:20;;;;;;;15.27;12.25;;;8.70;99.90;;;;;;5052686;28;20190;-78
2023/04/11 06:58:45;;;;;;;11.70;10.50;;;8.50;99.90;;;;;;5052183;28;20176;-78
2023/04/11 07:01:13;;;;;;;11.88;10.73;;;8.60;99.90;;;;;;5060301;28;20180;-78
2023/04/11 07:03:39;;;;;;;11.82;10.63;;;8.70;99.90;;;;;;5052797;28;20200;-79
2023/04/11 07:06:06;;;;;;;12.90;11.60;;;8.70;99.90;;;;;;5054263;28;20180;-78
2023/04/11 07:08:32;;;;;;;12.90;11.60;;;8.80;99.90;;;;;;5047726;28;20180;-77
2023/04/11 07:10:57;;;;;;;12.38;11.07;;;9.10;99.90;;;;;;5059189;28;20667;-77
2023/04/11 07:13:23;;;;;;;12.10;10.75;;;9.10;99.90;;;;;;5051430;28;20433;-78
2023/04/11 07:15:49;;;;;;;12.40;11.10;;;9.30;99.90;;;;;;5055222;28;20244;-78
2023/04/11 07:18:14;;;;;;;12.13;10.65;;;9.50;99.90;;;;;;5056617;28;20242;-78
2023/04/11 07:20:40;;;;;;;11.73;10.52;;;9.70;99.90;;;;;;5034585;28;20621;-78
2023/04/11 07:23:05;;;;;;;12.98;11.35;;;9.60;99.90;;;;;;5059078;28;20207;-78
2023/04/11 07:25:32;;;;;;;12.20;10.57;;;9.30;99.90;;;;;;5063950;28;20195;-84
2023/04/11 07:28:00;;;;;;;11.35;10.25;;;9.30;99.90;;;;;;5071026;28;20243;-80
2023/04/11 07:30:27;;;;;;;11.93;10.60;;;9.00;99.90;;;;;;5058206;28;20217;-81
2023/04/11 07:32:52;;;;;;;14.00;10.77;;;8.90;99.90;;;;;;5041569;28;20183;-78
2023/04/11 07:35:18;;;;;;;10.75;9.75;;;8.90;99.90;;;;;;5036244;28;20195;-78
2023/04/11 07:37:46;;;;;;;11.88;10.68;;;8.80;99.90;;;;;;5039640;28;20655;-78
2023/04/11 07:40:13;;;;;;;14.45;11.95;;;8.70;99.90;;;;;;5051727;28;20184;-78
2023/04/11 07:42:39;;;;;;;12.48;11.13;;;8.40;99.90;;;;;;5050544;28;20176;-78
2023/04/11 07:45:06;;;;;;;12.32;11.00;;;8.30;99.90;;;;;;5046607;28;20199;-78
2023/04/11 07:47:32;;;;;;;13.07;11.77;;;8.10;99.90;;;;;;5058849;28;20176;-78
2023/04/11 07:49:57;;;;;;;13.35;11.43;;;8.10;99.90;;;;;;5062706;28;20655;-78
2023/04/11 07:52:26;;;;;;;13.63;11.90;;;7.90;99.90;;;;;;5052444;28;20211;-77
2023/04/11 07:54:52;;;;;;;14.18;11.88;;;7.90;99.90;;;;;;5030752;28;20200;-77
2023/04/11 07:57:17;;;;;;;5.43;4.93;;;7.90;99.90;;;;;;5048992;28;20172;-77
2023/04/11 07:59:43;;;;;;;4.75;4.25;;;7.90;99.90;;;;;;5053068;28;20190;-77
2023/04/11 08:02:09;;;;;;;4.55;4.15;;;7.90;99.90;;;;;;5042666;28;20207;-78
2023/04/11 08:04:36;;;;;;;3.35;3.05;;;7.80;99.90;;;;;;5049135;28;20697;-78
2023/04/11 08:07:02;;;;;;;2.75;2.60;;;7.80;99.90;;;;;;5044365;28;20192;-78
2023/04/11 08:09:28;;;;;;;2.08;1.95;;;7.80;99.90;;;;;;5058616;28;20696;-77
2023/04/11 08:11:55;;;;;;;2.40;2.30;;;7.90;99.90;;;;;;5055241;28;20243;-78
2023/04/11 08:14:21;;;;;;;2.30;1.88;;;8.00;99.90;;;;;;5045789;28;20191;-77
2023/04/11 08:16:47;;;;;;;2.75;1.90;;;8.20;99.90;;;;;;5054562;28;20251;-77
2023/04/11 08:19:13;;;;;;;3.03;1.42;;;8.10;99.90;;;;;;5053597;28;20198;-77
2023/04/11 08:21:40;;;;;;;1.40;1.30;;;8.00;99.90;;;;;;5061955;28;20543;-77
2023/04/11 08:24:06;;;;;;;1.75;1.42;;;8.00;99.90;;;;;;5055954;28;20203;-77
2023/04/11 08:26:31;;;;;;;1.13;1.13;;;8.00;99.90;;;;;;5041199;28;20188;-75
2023/04/11 08:28:57;;;;;;;1.10;1.10;;;7.80;99.90;;;;;;5051348;28;20191;-76
2023/04/11 08:31:22;;;;;;;1.52;1.40;;;7.60;99.90;;;;;;5056748;28;20222;-77
2023/04/11 08:33:48;;;;;;;2.03;1.38;;;7.50;99.90;;;;;;5057660;28;20196;-77
2023/04/11 08:36:13;;;;;;;2.47;1.50;;;7.50;99.90;;;;;;5050650;28;20199;-77
2023/04/11 08:38:39;;;;;;;2.38;1.20;;;7.60;99.90;;;;;;5053766;28;20175;-77
2023/04/11 08:41:05;;;;;;;2.03;1.20;;;7.50;99.90;;;;;;5056565;28;20593;-77
2023/04/11 08:43:39;;;;;;;1.60;1.50;;;7.50;99.90;;;;;;5035282;28;20196;-76
2023/04/11 08:46:08;;;;;;;1.55;1.40;;;7.80;99.90;;;;;;5055240;28;20289;-77
2023/04/11 08:48:34;;;;;;;1.48;1.38;;;7.90;99.90;;;;;;5035997;28;20180;-77
2023/04/11 08:50:59;;;;;;;3.35;1.10;;;8.20;99.90;;;;;;5047111;28;20257;-77
2023/04/11 08:53:26;;;;;;;1.50;1.50;;;8.00;99.90;;;;;;5053181;28;20192;-76
2023/04/11 08:55:52;;;;;;;2.05;1.17;;;8.00;99.90;;;;;;5049961;28;20183;-76
2023/04/11 08:58:19;;;;;;;1.10;1.08;;;8.10;99.90;;;;;;5046513;28;20177;-76
2023/04/11 09:00:45;;;;;;;1.80;1.17;;;8.10;99.90;;;;;;5033297;28;20663;-76
2023/04/11 09:03:13;;;;;;;1.55;1.45;;;8.10;99.90;;;;;;5046544;28;20176;-77
2023/04/11 09:05:42;;;;;;;1.55;1.30;;;8.00;99.90;;;;;;5036210;28;20642;-76
2023/04/11 09:08:12;;;;;;;1.63;1.52;;;8.00;99.90;;;;;;5048017;28;20183;-76
2023/04/11 09:10:40;;;;;;;2.60;1.48;;;8.10;99.90;;;;;;5050307;28;20206;-76
2023/04/11 09:13:25;;;;;;;1.40;1.30;;;8.40;99.90;;;;;;5032205;28;20186;-76
2023/04/11 09:16:04;;;;;;;1.60;1.50;;;8.60;99.90;;;;;;5053078;28;20242;-78
2023/04/11 09:18:38;;;;;;;1.45;1.35;;;8.90;99.90;;;;;;5048815;28;20176;-76
2023/04/11 09:21:05;;;;;;;1.40;1.30;;;9.10;99.90;;;;;;5048897;28;20195;-77
2023/04/11 09:23:31;;;;;;;1.35;1.27;;;9.50;99.90;;;;;;5045734;28;20208;-77
2023/04/11 09:25:57;;;;;;;1.60;1.20;;;9.40;99.90;;;;;;5036657;28;20374;-77
2023/04/11 09:28:24;;;;;;;1.95;1.40;;;9.80;99.90;;;;;;5041746;28;20194;-77
2023/04/11 09:30:51;;;;;;;2.67;1.50;;;10.30;99.90;;;;;;5048800;28;20238;-78
2023/04/11 09:33:22;;;;;;;2.88;1.58;;;11.20;99.90;;;;;;5037714;28;20562;-76
2023/04/11 09:35:52;;;;;;;1.30;1.20;;;12.80;99.90;;;;;;5042972;28;20646;-76
2023/04/11 09:38:27;;;;;;;0.82;0.82;;;14.80;99.90;;;;;;5028308;28;20180;-77
2023/04/11 09:40:54;;;;;;;0.65;0.65;;;16.50;99.90;;;;;;5046193;28;20183;-77
2023/04/11 09:43:19;;;;;;;1.08;1.02;;;17.20;99.90;;;;;;5052157;28;20758;-77
2023/04/11 09:45:45;;;;;;;1.20;1.10;;;15.40;99.90;;;;;;5044185;28;20266;-77
2023/04/11 09:48:12;;;;;;;1.23;1.10;;;15.00;99.90;;;;;;5047262;28;20290;-77
2023/04/11 09:50:38;;;;;;;2.10;1.05;;;14.90;99.90;;;;;;5044388;28;20196;-76
2023/04/11 09:53:05;;;;;;;1.13;1.02;;;13.70;99.90;;;;;;5052645;28;20187;-76
2023/04/11 09:55:36;;;;;;;0.80;0.80;;;12.90;99.90;;;;;;5048116;28;20213;-77
2023/04/11 09:58:04;;;;;;;1.40;1.13;;;12.60;99.90;;;;;;5046153;28;20221;-77
2023/04/11 10:00:31;;;;;;;0.55;0.43;;;12.50;99.90;;;;;;5050223;28;20214;-77
2023/04/11 10:02:57;;;;;;;0.70;0.70;;;12.20;99.90;;;;;;5059366;28;20181;-77
2023/04/11 10:05:28;;;;;;;0.77;0.77;;;11.60;99.90;;;;;;5041093;28;20731;-78
2023/04/11 10:08:06;;;;;;;0.75;0.75;;;11.40;99.90;;;;;;5057220;28;20192;-77
2023/04/11 10:10:32;;;;;;;1.45;1.35;;;11.30;99.90;;;;;;5046638;28;21061;-76
2023/04/11 10:12:58;;;;;;;1.02;1.02;;;11.80;99.90;;;;;;5049188;28;20181;-77
2023/04/11 10:15:24;;;;;;;0.93;0.80;;;12.40;99.90;;;;;;5044893;28;20192;-78
2023/04/11 10:18:11;;;;;;;0.70;0.70;;;12.80;99.90;;;;;;5057466;28;20191;-75
2023/04/11 10:20:42;;;;;;;0.80;0.80;;;13.60;99.90;;;;;;5053982;28;20203;-76
2023/04/11 10:23:08;;;;;;;0.90;0.90;;;14.80;99.90;;;;;;5060736;28;20607;-76
2023/04/11 10:25:54;;;;;;;1.00;1.00;;;15.40;99.90;;;;;;5034902;28;20262;-75
2023/04/11 10:28:34;;;;;;;0.70;0.70;;;14.60;99.90;;;;;;5051933;28;20175;-76
2023/04/11 10:31:01;;;;;;;0.70;0.70;;;13.20;99.90;;;;;;5062199;28;20199;-75
2023/04/11 10:33:27;;;;;;;0.80;0.80;;;12.20;99.90;;;;;;5052971;28;20203;-76
2023/04/11 10:36:00;;;;;;;1.60;1.50;;;11.30;99.90;;;;;;5042585;28;20184;-76
2023/04/11 10:38:50;;;;;;;0.80;0.80;;;10.90;99.90;;;;;;5051887;28;20255;-75
2023/04/11 10:41:22;;;;;;;0.80;0.80;;;11.00;99.90;;;;;;5054863;28;20207;-76
2023/04/11 10:43:48;;;;;;;1.05;0.98;;;11.00;99.90;;;;;;5046948;28;20205;-75
2023/04/11 10:46:18;;;;;;;0.60;0.60;;;11.20;99.90;;;;;;5051162;28;20172;-75
2023/04/11 10:49:04;;;;;;;1.50;1.10;;;11.50;99.90;;;;;;5050971;28;20188;-76
2023/04/11 10:51:42;;;;;;;0.60;0.60;;;11.90;99.90;;;;;;5054364;28;20207;-77
2023/04/11 10:54:24;;;;;;;0.60;0.60;;;12.30;99.90;;;;;;5038319;28;20195;-78
2023/04/11 10:56:53;;;;;;;0.98;0.98;;;13.10;99.90;;;;;;5032931;28;20184;-78
2023/04/11 10:59:33;;;;;;;0.73;0.73;;;13.60;99.90;;;;;;5053527;28;20203;-76
2023/04/11 11:02:00;;;;;;;1.75;0.50;;;14.00;99.90;;;;;;5052909;28;20184;-77
2023/04/11 11:04:32;;;;;;;0.77;0.70;;;14.10;99.90;;;;;;5058168;28;20222;-77
2023/04/11 11:07:01;;;;;;;0.60;0.60;;;14.50;99.90;;;;;;5054697;28;20176;-76
2023/04/11 11:09:27;;;;;;;0.30;0.30;;;14.80;99.90;;;;;;5036793;28;20215;-75
2023/04/11 11:12:15;;;;;;;0.57;0.57;;;15.20;99.90;;;;;;5049367;28;20196;-77
2023/04/11 11:14:43;;;;;;;0.68;0.68;;;15.90;99.90;;;;;;5050860;28;20200;-77
2023/04/11 11:17:11;;;;;;;1.25;0.93;;;16.60;99.90;;;;;;5044988;28;20183;-78
2023/04/11 11:19:41;;;;;;;0.73;0.55;;;16.60;99.90;;;;;;5049428;28;20198;-76
2023/04/11 11:22:16;;;;;;;0.65;0.65;;;17.50;99.90;;;;;;5040174;28;20186;-75
2023/04/11 11:24:42;;;;;;;0.85;0.85;;;17.80;98.20;;;;;;5054093;28;20221;-76
2023/04/11 11:27:18;;;;;;;1.48;0.90;;;18.50;96.70;;;;;;5051624;28;20655;-76
2023/04/11 11:29:44;;;;;;;1.08;0.90;;;18.50;94.40;;;;;;5056451;28;20321;-77
2023/04/11 11:32:21;;;;;;;1.25;0.90;;;18.90;93.10;;;;;;5051966;28;20718;-77
2023/04/11 11:34:46;;;;;;;0.63;0.63;;;19.50;91.40;;;;;;5053855;28;20703;-81
2023/04/11 11:37:13;;;;;;;1.45;0.75;;;21.40;90.50;;;;;;5050640;28;20501;-82
2023/04/11 11:39:39;;;;;;;0.90;0.90;;;22.70;81.00;;;;;;5044673;28;20647;-78
2023/04/11 11:42:05;;;;;;;0.60;0.60;;;22.20;76.60;;;;;;5060823;28;20260;-77
2023/04/11 11:44:30;;;;;;;2.97;0.90;;;22.30;74.70;;;;;;5056023;28;20673;-78
2023/04/11 11:47:00;;;;;;;1.73;0.75;;;20.70;74.50;;;;;;5055785;28;20595;-78
2023/04/11 11:49:26;;;;;;;1.52;0.85;;;19.70;79.50;;;;;;5060012;28;20175;-77
2023/04/11 11:51:52;;;;;;;0.90;0.90;;;20.20;77.30;;;;;;5045791;28;20353;-77
2023/04/11 11:54:17;;;;;;;1.75;1.17;;;19.00;76.90;;;;;;5042783;28;20196;-78
2023/04/11 11:56:50;;;;;;;1.50;1.30;;;17.60;81.40;;;;;;5059672;28;20195;-76
2023/04/11 11:59:28;;;;;;;1.38;0.82;;;16.80;83.20;;;;;;5051876;28;20608;-78
2023/04/11 12:01:53;;;;;;;0.90;0.90;;;16.30;90.90;;;;;;5046466;28;20202;-77
2023/04/11 12:04:19;;;;;;;2.08;1.17;;;18.20;83.60;;;;;;5052288;28;20534;-76
2023/04/11 12:06:45;;;;;;;2.03;1.15;;;18.60;75.40;;;;;;5049964;28;20198;-77
2023/04/11 12:09:11;;;;;;;1.00;0.90;;;18.20;74.90;;;;;;5050455;28;20270;-76
2023/04/11 12:11:41;;;;;;;1.83;1.20;;;18.50;71.90;;;;;;5050705;28;20196;-76
2023/04/11 12:14:11;;;;;;;3.60;1.30;;;18.30;71.70;;;;;;5048812;28;20199;-79
2023/04/11 12:16:37;;;;;;;1.70;1.25;;;18.50;73.60;;;;;;5047259;28;20267;-76
2023/04/11 12:19:03;;;;;;;0.95;0.95;;;18.80;73.30;;;;;;5032404;28;20255;-77
2023/04/11 12:21:30;;;;;;;2.30;1.10;;;20.30;70.80;;;;;;5054971;28;20633;-75
2023/04/11 12:23:56;;;;;;;1.58;0.98;;;21.70;67.20;;;;;;5035584;28;20569;-74
2023/04/11 12:26:23;;;;;;;1.30;0.90;;;21.00;63.90;;;;;;5035700;28;20184;-75
2023/04/11 12:28:49;;;;;;;1.70;1.10;;;21.40;62.30;;;;;;5049884;28;20175;-78
2023/04/11 12:31:16;;;;;;;1.50;1.00;;;21.60;61.00;;;;;;5038239;28;20268;-75
2023/04/11 12:33:42;;;;;;;1.50;1.40;;;21.60;61.50;;;;;;5049911;28;20622;-77
2023/04/11 12:36:08;;;;;;;1.35;0.93;;;20.80;60.40;;;;;;5047305;28;20235;-76
2023/04/11 12:38:34;;;;;;;2.38;1.35;;;20.50;59.60;;;;;;5033672;28;20210;-74
2023/04/11 12:41:00;;;;;;;2.67;1.52;;;20.20;61.30;;;;;;5051401;28;20215;-75
2023/04/11 12:43:29;;;;;;;1.60;1.23;;;19.70;62.20;;;;;;5033475;28;20207;-75
2023/04/11 12:45:55;;;;;;;2.97;1.27;;;20.10;61.30;;;;;;5048890;28;20199;-77
2023/04/11 12:48:20;;;;;;;1.75;1.02;;;19.90;63.40;;;;;;5051583;28;20180;-75